Portada
METAR-TAF:

METAR-TAF

Aeroports :

Patna, Índia

latitud: 25-36N, longitud: 085-06E, altitud: 51 m

Observació

L'informe es va fer fa 11 minuts, a les 05:00 UTC
Vent 5 kt del Oest
Temperatura 29°C
Humitat 33%
Pressió 1012 hPa
Visibilitat: 4500 m
calitja

METAR: VEPT 200500Z 27005KT 4500 HZ NSC 29/11 Q1012 BECMG 5000 HZ

Hora: 10:41 (05:11 UTC)

Pronòstic

L'informe es va fer fa 3 hores i 11 minuts, a les 02:00 UTC
Pronòstic vàlid del 20 a les 03 UTC al 20 a les 12 UTC
Vent 5 kt del Oest/Sud-Oest
Visibilitat: 4000 m
calitja
Evolucionant progressivament
l' 20 a les 08 UTC al 20 a les 10 UTC
Vent 8 kt del Oest
Visibilitat: 6000 m

TAF: VEPT 200200Z 2003/2012 24005KT 4000 HZ NSC BECMG 2008/2010 28008KT 6000

Observacions i pronòstics meteorològics de més de 4000 aeroports (METAR i TAF).

Les estacions disponibles són els punts grocs i vermells al mapa.

Posi el ratolí al punt desitjat per veure el nom de l'estació.

Feu clic per veure les observacions i els pronòstics meteorològics.

Per canviar el mapa: feu clic els botons verds amb una creu de color negre per apropar; al botó verd amb un guió per allunyar la imatge; o en les fletxes verdes per a mapes adjacents.


METAR-TAF: